Time;durP1;ratioP1;P1;durP2;ratioP2;P2;SDS_P1;SDS_P2;PMS_P1;PMS_P2;Temp;Humidity;BMP_temperature;BMP_pressure;BME280_temperature;BME280_humidity;BME280_pressure;Samples;Min_cycle;Max_cycle;Signal;HPM_P1;HPM_P2
2023/07/19 00:02:24;;;;;;;4.80;2.50;;;20.40;57.50;;;;;;5045912;28;20451;-67
2023/07/19 00:04:52;;;;;;;7.20;2.80;;;20.40;57.70;;;;;;5044937;28;20455;-68
2023/07/19 00:07:19;;;;;;;4.17;2.20;;;20.30;57.80;;;;;;5044135;28;20552;-68
2023/07/19 00:09:47;;;;;;;5.63;2.60;;;20.30;58.00;;;;;;5042618;28;20467;-67
2023/07/19 00:12:17;;;;;;;4.83;2.67;;;20.20;57.90;;;;;;5043264;28;20450;-68
2023/07/19 00:14:45;;;;;;;3.83;2.47;;;20.20;57.90;;;;;;5045900;28;20437;-68
2023/07/19 00:17:17;;;;;;;3.93;2.50;;;20.20;58.20;;;;;;5030835;28;20482;-67
2023/07/19 00:19:52;;;;;;;4.00;3.03;;;20.20;58.30;;;;;;5049704;28;20474;-67
2023/07/19 00:22:19;;;;;;;4.97;3.00;;;20.20;58.30;;;;;;5045836;28;20485;-67
2023/07/19 00:24:46;;;;;;;4.47;2.50;;;20.10;58.30;;;;;;5047859;28;20549;-68
2023/07/19 00:27:14;;;;;;;4.53;2.70;;;20.10;58.50;;;;;;5050749;28;20799;-68
2023/07/19 00:29:43;;;;;;;3.97;2.73;;;20.10;58.70;;;;;;5048399;28;20474;-67
2023/07/19 00:32:10;;;;;;;4.80;2.60;;;20.00;58.70;;;;;;5046044;28;20486;-67
2023/07/19 00:34:37;;;;;;;4.10;2.80;;;20.00;58.90;;;;;;5047281;28;20446;-68
2023/07/19 00:37:06;;;;;;;7.13;3.00;;;20.00;58.90;;;;;;5045321;28;20466;-68
2023/07/19 00:39:34;;;;;;;3.33;2.70;;;20.00;58.90;;;;;;5045728;28;20487;-67
2023/07/19 00:42:02;;;;;;;4.77;2.67;;;20.00;59.10;;;;;;5046131;28;20461;-67
2023/07/19 00:44:29;;;;;;;5.83;2.90;;;20.00;59.20;;;;;;5044161;28;20490;-67
2023/07/19 00:46:59;;;;;;;3.17;2.60;;;20.00;59.30;;;;;;5042978;28;20469;-69
2023/07/19 00:49:29;;;;;;;6.13;2.60;;;20.00;59.50;;;;;;5042649;28;20434;-67
2023/07/19 00:51:57;;;;;;;4.63;2.37;;;20.00;59.60;;;;;;5043245;28;20427;-68
2023/07/19 00:54:28;;;;;;;5.70;2.90;;;19.90;59.60;;;;;;5044011;28;20450;-69
2023/07/19 00:56:56;;;;;;;5.03;2.70;;;19.90;59.80;;;;;;5042842;28;20441;-67
2023/07/19 00:59:24;;;;;;;5.47;2.67;;;19.90;60.20;;;;;;5042238;28;20482;-68
2023/07/19 01:01:55;;;;;;;4.57;2.57;;;19.80;60.20;;;;;;5043964;28;20450;-67
2023/07/19 01:04:24;;;;;;;11.50;2.50;;;19.80;60.60;;;;;;5043253;28;20439;-69
2023/07/19 01:06:51;;;;;;;9.60;3.37;;;19.70;60.70;;;;;;5043329;28;20846;-69
2023/07/19 01:09:18;;;;;;;4.00;3.20;;;19.70;61.10;;;;;;5028911;28;20462;-67
2023/07/19 01:11:46;;;;;;;6.37;3.20;;;19.70;61.40;;;;;;5022062;28;20471;-68
2023/07/19 01:14:16;;;;;;;6.53;3.10;;;19.70;61.30;;;;;;5022391;28;20794;-68
2023/07/19 01:16:44;;;;;;;7.13;2.93;;;19.60;61.30;;;;;;5022128;28;20447;-68
2023/07/19 01:19:11;;;;;;;8.20;3.77;;;19.60;61.40;;;;;;5021965;28;20534;-67
2023/07/19 01:21:40;;;;;;;8.90;3.10;;;19.50;61.60;;;;;;5022202;28;20472;-67
2023/07/19 01:24:14;;;;;;;6.67;2.97;;;19.50;61.80;;;;;;5022200;28;20505;-68
2023/07/19 01:26:41;;;;;;;10.13;3.70;;;19.50;62.20;;;;;;5022136;28;20905;-66
2023/07/19 01:29:07;;;;;;;7.77;3.03;;;19.40;62.20;;;;;;5022688;28;20439;-69
2023/07/19 01:31:35;;;;;;;10.20;3.80;;;19.40;62.50;;;;;;5022254;28;20475;-68
2023/07/19 01:34:02;;;;;;;10.60;3.50;;;19.40;62.70;;;;;;5022454;28;20448;-69
2023/07/19 01:36:36;;;;;;;11.10;3.60;;;19.40;62.90;;;;;;5027675;28;20458;-68
2023/07/19 01:39:05;;;;;;;10.90;3.73;;;19.30;63.10;;;;;;5038103;28;20477;-68
2023/07/19 01:41:33;;;;;;;14.97;3.50;;;19.30;63.40;;;;;;5033462;28;20467;-69
2023/07/19 01:44:00;;;;;;;11.17;3.40;;;19.30;63.50;;;;;;5029244;28;20818;-69
2023/07/19 01:46:29;;;;;;;12.13;3.90;;;19.30;64.40;;;;;;5027270;28;20451;-69
2023/07/19 01:48:57;;;;;;;13.60;3.27;;;19.30;63.70;;;;;;5026892;28;20551;-68
2023/07/19 01:51:24;;;;;;;10.60;3.33;;;19.30;63.80;;;;;;5026984;28;20499;-68
2023/07/19 01:53:52;;;;;;;12.27;4.43;;;19.30;64.20;;;;;;5026844;28;20451;-69
2023/07/19 01:56:19;;;;;;;10.00;3.60;;;19.20;64.40;;;;;;5027917;28;20451;-69
2023/07/19 01:58:47;;;;;;;15.03;4.10;;;19.10;64.30;;;;;;5030188;28;20502;-68
2023/07/19 02:01:14;;;;;;;9.53;3.40;;;19.10;64.30;;;;;;5032568;28;20817;-68
2023/07/19 02:03:43;;;;;;;11.70;2.90;;;19.10;64.30;;;;;;5028942;28;20443;-69
2023/07/19 02:06:13;;;;;;;16.77;4.23;;;19.10;64.90;;;;;;5026607;28;21043;-69
2023/07/19 02:08:45;;;;;;;11.80;3.50;;;19.20;64.60;;;;;;5025934;28;20423;-69
2023/07/19 02:11:12;;;;;;;10.13;3.60;;;19.30;64.00;;;;;;5026220;28;20503;-68
2023/07/19 02:13:39;;;;;;;10.83;3.63;;;19.30;64.30;;;;;;5026086;28;20903;-69
2023/07/19 02:16:15;;;;;;;18.13;3.80;;;19.30;64.50;;;;;;5026693;28;20822;-69
2023/07/19 02:18:41;;;;;;;18.80;4.00;;;19.20;64.00;;;;;;5030347;28;20474;-69
2023/07/19 02:21:16;;;;;;;18.57;4.17;;;19.10;64.00;;;;;;5026751;28;20495;-68
2023/07/19 02:23:44;;;;;;;17.87;4.10;;;19.00;63.90;;;;;;5025528;28;20438;-69
2023/07/19 02:26:18;;;;;;;16.50;3.87;;;19.00;63.90;;;;;;5025390;28;20451;-69
2023/07/19 02:28:45;;;;;;;26.57;5.20;;;19.00;63.50;;;;;;5024465;28;20448;-68
2023/07/19 02:31:13;;;;;;;29.03;4.70;;;19.00;63.90;;;;;;5025012;28;20474;-68
2023/07/19 02:33:40;;;;;;;21.97;4.70;;;19.00;64.80;;;;;;5024876;28;20455;-69
2023/07/19 02:36:07;;;;;;;23.03;4.70;;;19.00;65.10;;;;;;5028420;28;20972;-69
2023/07/19 02:38:37;;;;;;;21.83;4.37;;;19.00;65.80;;;;;;5028806;28;20483;-69
2023/07/19 02:41:07;;;;;;;16.40;4.87;;;18.80;66.80;;;;;;5026617;28;20514;-69
2023/07/19 02:43:34;;;;;;;17.23;3.67;;;18.80;66.90;;;;;;5027108;28;20554;-69
2023/07/19 02:46:01;;;;;;;17.83;5.10;;;18.70;67.60;;;;;;5025242;28;20451;-69
2023/07/19 02:48:32;;;;;;;9.50;3.90;;;18.70;68.40;;;;;;5027318;28;21003;-68
2023/07/19 02:50:59;;;;;;;17.50;4.60;;;18.70;68.80;;;;;;5026265;28;20471;-68
2023/07/19 02:53:27;;;;;;;10.80;4.10;;;18.70;69.80;;;;;;5024782;28;20458;-69
2023/07/19 02:55:55;;;;;;;6.77;3.50;;;18.80;69.90;;;;;;5025136;28;20475;-69
2023/07/19 02:58:22;;;;;;;9.30;3.67;;;18.80;70.10;;;;;;5025623;28;20447;-68
2023/07/19 03:00:49;;;;;;;9.23;3.60;;;18.90;70.30;;;;;;5025342;28;20478;-68
2023/07/19 03:03:16;;;;;;;10.63;3.27;;;18.90;70.10;;;;;;5025957;28;20472;-69
2023/07/19 03:05:48;;;;;;;10.57;3.67;;;19.00;70.00;;;;;;5024890;28;20550;-69
2023/07/19 03:08:15;;;;;;;7.87;3.50;;;19.00;69.80;;;;;;5025362;28;20444;-69
2023/07/19 03:10:44;;;;;;;11.30;3.80;;;19.10;69.90;;;;;;5025572;28;20471;-68
2023/07/19 03:13:12;;;;;;;10.60;3.20;;;19.10;70.20;;;;;;5025135;28;20443;-69
2023/07/19 03:15:39;;;;;;;12.17;4.17;;;19.10;69.70;;;;;;5024656;28;20459;-69
2023/07/19 03:18:07;;;;;;;9.53;3.73;;;19.10;70.10;;;;;;5024843;28;20451;-69
2023/07/19 03:20:36;;;;;;;11.80;3.73;;;19.20;70.10;;;;;;5023185;28;20992;-69
2023/07/19 03:23:09;;;;;;;6.60;3.30;;;19.20;70.10;;;;;;5025022;28;20452;-69
2023/07/19 03:25:35;;;;;;;9.37;3.90;;;19.20;70.50;;;;;;5024557;28;20467;-69
2023/07/19 03:28:02;;;;;;;12.07;3.90;;;19.20;70.30;;;;;;5024519;28;20455;-69
2023/07/19 03:30:31;;;;;;;7.07;3.80;;;19.20;70.30;;;;;;5023822;28;20463;-68
2023/07/19 03:32:58;;;;;;;6.20;3.07;;;19.20;70.50;;;;;;5025914;28;20531;-68
2023/07/19 03:35:25;;;;;;;8.07;3.47;;;19.30;70.70;;;;;;5044116;28;20446;-68
2023/07/19 03:37:53;;;;;;;8.43;3.83;;;19.30;71.00;;;;;;5042595;28;20442;-68
2023/07/19 03:40:24;;;;;;;10.10;3.70;;;19.30;70.70;;;;;;5043242;28;20900;-68
2023/07/19 03:42:54;;;;;;;8.10;3.80;;;19.30;70.80;;;;;;5044149;28;20411;-69
2023/07/19 03:45:21;;;;;;;6.00;3.37;;;19.30;71.00;;;;;;5044167;28;20446;-68
2023/07/19 03:47:48;;;;;;;6.43;3.20;;;19.30;70.90;;;;;;5037143;28;20473;-69
2023/07/19 03:50:14;;;;;;;6.37;3.57;;;19.30;71.10;;;;;;5026809;28;20535;-67
2023/07/19 03:52:44;;;;;;;6.20;4.37;;;19.40;70.90;;;;;;5043728;28;20469;-68
2023/07/19 03:55:11;;;;;;;5.00;3.10;;;19.40;70.80;;;;;;5042693;28;20443;-69
2023/07/19 03:57:40;;;;;;;8.97;3.93;;;19.40;70.90;;;;;;5047967;28;20454;-69
2023/07/19 04:00:10;;;;;;;5.17;3.03;;;19.40;70.90;;;;;;5049805;28;20490;-68
2023/07/19 04:02:39;;;;;;;7.50;3.40;;;19.40;71.30;;;;;;5046625;28;20478;-69
2023/07/19 04:05:09;;;;;;;8.83;3.73;;;19.40;72.00;;;;;;5043748;28;20454;-69
2023/07/19 04:07:37;;;;;;;4.50;2.80;;;19.40;71.90;;;;;;5043590;28;20533;-69
2023/07/19 04:10:05;;;;;;;7.90;3.73;;;19.40;72.30;;;;;;5043747;28;20513;-69
2023/07/19 04:12:34;;;;;;;6.07;3.40;;;19.50;72.30;;;;;;5043676;28;20454;-69
2023/07/19 04:15:04;;;;;;;6.13;3.87;;;19.50;72.30;;;;;;5043560;28;20446;-69
2023/07/19 04:17:32;;;;;;;6.90;3.37;;;19.50;71.70;;;;;;5043351;28;20446;-69
2023/07/19 04:20:00;;;;;;;8.33;3.33;;;19.60;72.70;;;;;;5043584;28;20490;-68
2023/07/19 04:22:29;;;;;;;3.20;2.63;;;19.60;73.50;;;;;;5044098;28;20457;-69
2023/07/19 04:24:56;;;;;;;6.50;3.63;;;19.60;73.20;;;;;;5043696;28;20454;-69
2023/07/19 04:27:27;;;;;;;5.00;3.20;;;19.60;73.70;;;;;;5043340;28;20829;-69
2023/07/19 04:29:54;;;;;;;5.40;3.07;;;19.70;74.00;;;;;;5042527;28;20469;-68
2023/07/19 04:32:22;;;;;;;7.40;3.50;;;19.70;74.10;;;;;;5043077;28;20457;-69
2023/07/19 04:34:49;;;;;;;7.50;3.80;;;19.70;75.20;;;;;;5045464;28;20450;-69
2023/07/19 04:37:16;;;;;;;9.77;3.40;;;19.60;75.50;;;;;;5046491;28;20450;-69
2023/07/19 04:39:44;;;;;;;6.33;3.47;;;19.60;75.30;;;;;;5043430;28;20478;-68
2023/07/19 04:42:11;;;;;;;10.63;4.93;;;19.60;75.80;;;;;;5044448;28;20449;-69
2023/07/19 04:47:26;;;;;;;8.50;4.20;;;19.70;74.90;;;;;;5044840;28;20442;-69
2023/07/19 04:49:53;;;;;;;19.77;4.40;;;19.80;73.60;;;;;;5050162;28;20469;-67
2023/07/19 04:52:23;;;;;;;15.20;4.30;;;19.90;71.90;;;;;;5052049;28;20450;-69
2023/07/19 04:54:50;;;;;;;10.73;3.90;;;19.90;72.20;;;;;;5052885;28;20466;-69
2023/07/19 04:57:17;;;;;;;14.03;4.07;;;19.90;73.70;;;;;;5044301;28;20461;-69
2023/07/19 04:59:52;;;;;;;18.23;4.10;;;20.00;75.00;;;;;;5042821;28;20490;-68
2023/07/19 05:02:19;;;;;;;12.57;4.00;;;20.10;75.20;;;;;;5043568;28;20451;-69
2023/07/19 05:04:49;;;;;;;18.57;4.77;;;20.10;75.70;;;;;;5042446;28;20454;-69
2023/07/19 05:07:16;;;;;;;11.90;4.53;;;20.10;76.30;;;;;;5042838;28;20431;-69
2023/07/19 05:09:44;;;;;;;16.07;4.03;;;20.10;76.30;;;;;;5044184;28;20451;-68
2023/07/19 05:12:14;;;;;;;15.10;5.57;;;20.10;74.90;;;;;;5044019;28;20442;-68
2023/07/19 05:14:42;;;;;;;8.53;3.67;;;20.20;75.10;;;;;;5042631;28;20449;-69
2023/07/19 05:17:12;;;;;;;15.03;4.43;;;20.30;75.30;;;;;;5043992;28;20908;-70
2023/07/19 05:19:39;;;;;;;20.67;4.97;;;20.30;74.00;;;;;;5043030;28;20999;-69
2023/07/19 05:22:08;;;;;;;11.13;4.90;;;20.30;73.50;;;;;;5044030;28;20433;-70
2023/07/19 05:24:35;;;;;;;22.60;5.03;;;20.30;75.70;;;;;;5042594;28;20450;-70
2023/07/19 05:27:03;;;;;;;24.70;5.90;;;20.40;74.00;;;;;;5043103;28;20466;-69
2023/07/19 05:29:30;;;;;;;19.80;5.27;;;20.40;72.80;;;;;;5042810;28;20827;-69
2023/07/19 05:31:58;;;;;;;16.43;4.93;;;20.40;71.70;;;;;;5042329;28;20451;-69
2023/07/19 05:34:25;;;;;;;23.33;5.00;;;20.50;71.90;;;;;;5041011;28;20478;-70
2023/07/19 05:36:52;;;;;;;19.60;5.23;;;20.50;72.00;;;;;;5040739;28;20504;-70
2023/07/19 05:39:22;;;;;;;19.70;6.37;;;20.50;72.90;;;;;;5042231;28;20451;-69
2023/07/19 05:41:49;;;;;;;23.60;5.80;;;20.60;71.80;;;;;;5042721;28;20469;-69
2023/07/19 05:44:16;;;;;;;15.63;5.20;;;20.60;71.80;;;;;;5042572;28;20529;-70
2023/07/19 05:46:43;;;;;;;18.40;6.27;;;20.60;72.70;;;;;;5043286;28;21022;-70
2023/07/19 05:49:12;;;;;;;10.70;4.87;;;20.70;72.60;;;;;;5043025;28;20471;-70
2023/07/19 05:51:39;;;;;;;20.63;6.57;;;20.70;72.20;;;;;;5042030;28;20558;-69
2023/07/19 05:54:07;;;;;;;19.17;6.47;;;20.80;71.30;;;;;;5042486;28;20815;-70
2023/07/19 05:56:35;;;;;;;17.63;6.27;;;20.80;71.20;;;;;;5042294;28;20453;-69
2023/07/19 05:59:05;;;;;;;15.03;7.10;;;20.70;70.40;;;;;;5042259;28;20442;-70
2023/07/19 06:01:33;;;;;;;18.40;7.00;;;20.70;71.60;;;;;;5041266;28;20485;-69
2023/07/19 06:04:01;;;;;;;11.23;6.13;;;20.60;70.90;;;;;;5042302;28;20450;-69
2023/07/19 06:06:28;;;;;;;25.43;6.83;;;20.50;71.50;;;;;;5042156;28;20455;-70
2023/07/19 06:08:58;;;;;;;14.97;7.73;;;20.50;72.50;;;;;;5041503;28;20458;-69
2023/07/19 06:11:27;;;;;;;10.23;6.07;;;20.50;72.90;;;;;;5042776;28;20466;-69
2023/07/19 06:13:55;;;;;;;12.97;6.63;;;20.50;72.90;;;;;;5046144;28;20457;-70
2023/07/19 06:16:22;;;;;;;14.83;6.17;;;20.50;73.80;;;;;;5045783;28;20458;-70
2023/07/19 06:18:49;;;;;;;14.13;5.80;;;20.60;73.40;;;;;;5044829;28;20454;-69
2023/07/19 06:21:17;;;;;;;23.43;7.13;;;20.70;73.20;;;;;;5044137;28;20497;-69
2023/07/19 06:23:46;;;;;;;19.17;6.60;;;20.80;72.70;;;;;;5044703;28;20470;-70
2023/07/19 06:26:13;;;;;;;14.37;7.10;;;20.80;73.10;;;;;;5045545;28;20454;-70
2023/07/19 06:28:39;;;;;;;18.63;6.57;;;20.90;73.10;;;;;;5046046;28;20522;-69
2023/07/19 06:31:09;;;;;;;14.10;6.33;;;20.90;72.80;;;;;;5045473;28;20463;-70
2023/07/19 06:33:38;;;;;;;12.80;6.50;;;21.00;72.60;;;;;;5046288;28;20873;-70
2023/07/19 06:36:06;;;;;;;12.83;6.37;;;21.00;72.70;;;;;;5044196;28;20446;-69
2023/07/19 06:38:36;;;;;;;15.93;6.70;;;21.10;73.00;;;;;;5025176;28;20456;-70
2023/07/19 06:41:07;;;;;;;15.80;6.40;;;21.20;73.20;;;;;;5024057;28;20486;-69
2023/07/19 06:43:35;;;;;;;13.23;7.80;;;21.30;71.60;;;;;;5024642;28;20448;-70
2023/07/19 06:46:03;;;;;;;14.00;7.20;;;21.30;71.10;;;;;;5025324;28;20440;-70
2023/07/19 06:48:32;;;;;;;21.70;7.30;;;21.40;70.80;;;;;;5026757;28;20457;-70
2023/07/19 06:51:00;;;;;;;18.77;7.37;;;21.50;71.30;;;;;;5026522;28;20474;-69
2023/07/19 06:53:29;;;;;;;16.83;7.30;;;21.40;69.70;;;;;;5027032;28;20439;-70
2023/07/19 06:55:59;;;;;;;16.17;7.00;;;21.50;70.10;;;;;;5024829;28;20873;-72
2023/07/19 06:58:27;;;;;;;9.63;6.60;;;21.40;69.80;;;;;;5026230;28;20510;-69
2023/07/19 07:00:58;;;;;;;12.50;7.40;;;21.50;69.30;;;;;;5024273;28;20483;-69
2023/07/19 07:03:26;;;;;;;15.13;6.80;;;21.50;69.40;;;;;;5025477;28;20531;-70
2023/07/19 07:05:54;;;;;;;9.60;6.60;;;21.40;69.50;;;;;;5025585;28;20475;-70
2023/07/19 07:08:28;;;;;;;8.33;6.10;;;21.40;70.30;;;;;;5027125;28;20466;-69
2023/07/19 07:10:55;;;;;;;9.80;6.37;;;21.40;71.00;;;;;;5025688;28;20495;-69
2023/07/19 07:13:22;;;;;;;15.07;7.23;;;21.30;72.30;;;;;;5024273;28;20539;-69
2023/07/19 07:15:53;;;;;;;12.90;6.80;;;21.30;73.50;;;;;;5021086;28;20454;-69
2023/07/19 07:18:19;;;;;;;8.00;6.67;;;21.30;75.10;;;;;;5021237;28;20486;-69
2023/07/19 07:20:46;;;;;;;9.97;7.37;;;21.30;76.60;;;;;;5024506;28;20487;-69
2023/07/19 07:23:14;;;;;;;8.30;6.67;;;21.20;75.90;;;;;;5024390;28;20483;-70
2023/07/19 07:25:41;;;;;;;10.60;7.00;;;21.30;76.60;;;;;;5025578;28;20640;-70
2023/07/19 07:28:08;;;;;;;13.73;7.70;;;21.30;77.60;;;;;;5024065;28;20450;-69
2023/07/19 07:30:36;;;;;;;12.27;7.10;;;21.50;78.90;;;;;;5024163;28;20548;-69
2023/07/19 07:33:03;;;;;;;13.67;7.17;;;21.60;79.80;;;;;;5023136;28;20479;-70
2023/07/19 07:35:30;;;;;;;8.60;6.00;;;21.70;79.90;;;;;;5024490;28;20458;-70
2023/07/19 07:37:57;;;;;;;13.13;6.80;;;21.80;80.90;;;;;;5024572;28;20866;-70
2023/07/19 07:40:25;;;;;;;11.87;6.70;;;21.90;80.80;;;;;;5025210;28;20484;-68
2023/07/19 07:42:52;;;;;;;10.93;7.57;;;22.00;80.20;;;;;;5030353;28;20827;-69
2023/07/19 07:45:20;;;;;;;9.73;6.90;;;22.00;80.10;;;;;;5027687;28;20447;-69
2023/07/19 07:47:47;;;;;;;10.00;6.77;;;22.00;80.60;;;;;;5025547;28;20455;-69
2023/07/19 07:50:14;;;;;;;8.07;7.20;;;22.00;80.90;;;;;;5024544;28;20474;-68
2023/07/19 07:52:41;;;;;;;9.33;7.47;;;22.00;80.90;;;;;;5024024;28;20542;-68
2023/07/19 07:55:08;;;;;;;7.77;7.07;;;21.90;80.80;;;;;;5023854;28;20450;-69
2023/07/19 07:57:37;;;;;;;11.13;7.87;;;21.90;80.60;;;;;;5024305;28;20458;-69
2023/07/19 08:00:07;;;;;;;14.30;6.80;;;22.00;81.10;;;;;;5023272;28;20483;-68
2023/07/19 08:02:33;;;;;;;7.70;6.60;;;22.00;80.60;;;;;;5024142;28;20831;-68
2023/07/19 08:05:01;;;;;;;16.13;6.93;;;22.10;80.90;;;;;;5023450;28;20451;-70
2023/07/19 08:07:27;;;;;;;6.70;6.10;;;22.20;79.80;;;;;;5024013;28;20435;-69
2023/07/19 08:09:54;;;;;;;6.93;5.60;;;22.30;78.10;;;;;;5023624;28;20479;-68
2023/07/19 08:12:22;;;;;;;12.30;6.80;;;22.40;75.70;;;;;;5024212;28;20451;-69
2023/07/19 08:14:58;;;;;;;9.20;6.07;;;22.50;75.70;;;;;;5024154;28;20789;-69
2023/07/19 08:17:26;;;;;;;9.93;5.73;;;22.40;76.30;;;;;;5023368;28;20435;-68
2023/07/19 08:19:53;;;;;;;8.87;5.60;;;22.40;74.30;;;;;;5022572;28;20475;-69
2023/07/19 08:22:33;;;;;;;7.90;5.63;;;22.20;74.90;;;;;;5023075;28;20514;-69
2023/07/19 08:25:01;;;;;;;7.90;5.53;;;22.20;75.60;;;;;;5023902;28;20474;-69
2023/07/19 08:27:29;;;;;;;8.23;5.33;;;22.10;74.80;;;;;;5022289;28;20451;-69
2023/07/19 08:29:57;;;;;;;9.13;5.70;;;22.00;76.10;;;;;;5022683;28;20471;-69
2023/07/19 08:32:24;;;;;;;7.47;6.00;;;21.90;78.20;;;;;;5022384;28;20968;-69
2023/07/19 08:34:50;;;;;;;7.23;5.80;;;21.90;78.00;;;;;;5022629;28;20451;-69
2023/07/19 08:37:18;;;;;;;8.20;6.13;;;21.80;78.20;;;;;;5025196;28;20451;-70
2023/07/19 08:39:44;;;;;;;10.03;6.27;;;21.90;78.20;;;;;;5030157;28;20499;-69
2023/07/19 08:42:11;;;;;;;7.63;5.57;;;22.00;78.60;;;;;;5026303;28;20483;-69
2023/07/19 08:44:38;;;;;;;10.97;6.27;;;22.10;78.40;;;;;;5024310;28;20458;-69
2023/07/19 08:47:11;;;;;;;7.87;5.50;;;22.20;78.40;;;;;;5022253;28;20448;-69
2023/07/19 08:49:39;;;;;;;6.13;5.57;;;22.30;78.00;;;;;;5022102;28;20451;-68
2023/07/19 08:52:08;;;;;;;8.20;5.20;;;22.20;76.60;;;;;;5023647;28;20444;-69
2023/07/19 08:54:35;;;;;;;8.00;5.70;;;22.20;76.20;;;;;;5023273;28;20451;-69
2023/07/19 08:57:04;;;;;;;6.70;5.43;;;22.20;77.30;;;;;;5023220;28;20444;-68
2023/07/19 08:59:31;;;;;;;8.13;4.73;;;22.20;77.60;;;;;;5023072;28;20502;-68
2023/07/19 09:01:58;;;;;;;6.90;5.27;;;22.10;76.60;;;;;;5021774;28;20487;-69
2023/07/19 09:04:30;;;;;;;6.60;5.90;;;22.10;77.00;;;;;;5022134;28;20456;-70
2023/07/19 09:06:57;;;;;;;7.30;5.20;;;22.20;77.50;;;;;;5021994;28;20486;-69
2023/07/19 09:09:23;;;;;;;6.07;5.43;;;22.20;75.80;;;;;;5022575;28;20475;-69
2023/07/19 09:11:50;;;;;;;9.80;5.30;;;22.30;76.20;;;;;;5023290;28;20531;-69
2023/07/19 09:14:17;;;;;;;7.93;5.77;;;22.40;76.50;;;;;;5022599;28;20450;-69
2023/07/19 09:16:48;;;;;;;5.93;5.33;;;22.60;76.70;;;;;;5023022;28;20451;-70
2023/07/19 09:19:15;;;;;;;5.17;4.67;;;23.00;75.60;;;;;;5025330;28;20435;-69
2023/07/19 09:21:49;;;;;;;5.90;5.23;;;23.40;73.20;;;;;;5024483;28;20491;-69
2023/07/19 09:24:16;;;;;;;8.17;5.30;;;23.80;72.30;;;;;;5022380;28;20440;-70
2023/07/19 09:26:52;;;;;;;10.50;4.50;;;24.10;68.80;;;;;;5022495;28;20447;-69
2023/07/19 09:29:21;;;;;;;6.37;4.50;;;24.30;65.30;;;;;;5022258;28;20451;-70
2023/07/19 09:31:54;;;;;;;7.53;4.60;;;24.50;66.90;;;;;;5022033;28;20471;-69
2023/07/19 09:34:23;;;;;;;5.97;4.00;;;24.70;61.70;;;;;;5022785;28;20503;-70
2023/07/19 09:36:53;;;;;;;6.47;4.43;;;25.00;60.60;;;;;;5020623;28;20995;-69
2023/07/19 09:39:21;;;;;;;5.70;4.60;;;25.40;59.80;;;;;;5023771;28;20929;-69
2023/07/19 09:41:50;;;;;;;13.53;4.20;;;25.70;57.60;;;;;;5027514;28;20483;-70
2023/07/19 09:44:21;;;;;;;5.70;3.70;;;25.90;56.10;;;;;;5023420;28;20458;-70
2023/07/19 09:46:49;;;;;;;7.60;4.07;;;26.00;53.70;;;;;;5024203;28;20470;-70
2023/07/19 09:49:16;;;;;;;3.90;2.90;;;26.20;53.30;;;;;;5024262;28;20855;-70
2023/07/19 09:51:44;;;;;;;2.97;2.67;;;26.40;51.40;;;;;;5024664;28;20471;-70
2023/07/19 09:54:18;;;;;;;8.60;2.90;;;26.80;51.40;;;;;;5024719;28;20515;-70
2023/07/19 09:56:46;;;;;;;4.43;3.03;;;27.30;51.50;;;;;;5026261;28;20454;-71
2023/07/19 09:59:22;;;;;;;4.03;3.00;;;27.50;50.20;;;;;;5029476;28;20450;-71
2023/07/19 10:01:50;;;;;;;7.63;2.70;;;27.70;49.80;;;;;;5029680;28;20991;-70
2023/07/19 10:04:26;;;;;;;5.07;2.73;;;28.00;48.60;;;;;;5030625;28;20454;-70
2023/07/19 10:07:11;;;;;;;4.07;2.27;;;28.20;47.60;;;;;;5031045;28;20981;-68
2023/07/19 10:09:41;;;;;;;6.10;2.40;;;28.40;46.00;;;;;;5030742;28;20433;-67
2023/07/19 10:12:28;;;;;;;3.10;2.20;;;28.60;46.20;;;;;;5028010;28;20459;-68
2023/07/19 10:17:41;;;;;;;2.90;2.17;;;28.80;44.00;;;;;;5029006;28;20899;-67
2023/07/19 10:20:15;;;;;;;7.70;2.10;;;28.70;41.10;;;;;;5028587;28;20459;-67
2023/07/19 10:22:52;;;;;;;3.77;2.43;;;28.70;43.00;;;;;;5011994;28;20479;-68
2023/07/19 10:25:37;;;;;;;3.63;2.00;;;28.50;43.00;;;;;;5027940;28;20446;-67
2023/07/19 10:28:07;;;;;;;3.50;2.50;;;28.20;44.00;;;;;;5029054;28;20428;-68
2023/07/19 10:30:51;;;;;;;6.67;2.23;;;27.90;43.00;;;;;;5029197;28;20490;-67
2023/07/19 10:33:20;;;;;;;5.97;2.73;;;28.10;44.10;;;;;;5029257;28;20428;-70
2023/07/19 10:35:50;;;;;;;5.90;2.60;;;28.30;44.00;;;;;;5027180;28;20515;-70
2023/07/19 10:38:19;;;;;;;3.60;2.30;;;28.80;44.00;;;;;;5026583;28;20435;-68
2023/07/19 10:40:49;;;;;;;3.30;2.07;;;29.40;42.70;;;;;;5025370;28;20837;-68
2023/07/19 10:43:19;;;;;;;4.93;2.70;;;29.70;40.50;;;;;;5026407;28;20821;-68
2023/07/19 10:45:48;;;;;;;5.90;2.77;;;29.60;39.50;;;;;;5027101;28;20435;-69
2023/07/19 10:48:15;;;;;;;3.50;2.03;;;29.50;39.70;;;;;;5026432;28;20917;-68
2023/07/19 10:50:48;;;;;;;6.00;2.70;;;29.20;40.80;;;;;;5026658;28;20563;-68
2023/07/19 10:53:15;;;;;;;3.80;2.00;;;29.00;41.10;;;;;;5026262;28;20423;-69
2023/07/19 10:55:45;;;;;;;6.03;2.80;;;28.90;41.20;;;;;;5033257;28;20443;-69
2023/07/19 10:58:22;;;;;;;5.73;2.87;;;29.10;43.30;;;;;;5032868;28;20478;-68
2023/07/19 11:00:52;;;;;;;4.00;2.30;;;29.60;42.90;;;;;;5030289;28;20493;-69
2023/07/19 11:03:22;;;;;;;4.53;2.40;;;30.10;39.70;;;;;;5029703;28;20447;-69
2023/07/19 11:05:50;;;;;;;4.03;2.33;;;30.40;37.40;;;;;;5025925;28;20579;-69
2023/07/19 11:11:13;;;;;;;5.13;2.20;;;31.00;37.20;;;;;;5034767;28;20458;-69
2023/07/19 11:13:44;;;;;;;4.53;2.20;;;31.00;35.30;;;;;;5031626;28;20438;-70
2023/07/19 11:16:12;;;;;;;5.80;2.33;;;30.70;35.10;;;;;;5027929;28;20424;-68
2023/07/19 11:18:40;;;;;;;3.53;2.30;;;30.80;37.20;;;;;;5025818;28;20534;-68
2023/07/19 11:21:09;;;;;;;3.50;2.60;;;30.80;37.30;;;;;;5026944;28;20470;-68
2023/07/19 11:23:41;;;;;;;3.33;2.20;;;31.00;37.20;;;;;;5026048;28;20454;-69
2023/07/19 11:26:09;;;;;;;2.83;2.13;;;31.10;35.70;;;;;;5025648;28;20432;-68
2023/07/19 11:28:44;;;;;;;4.70;2.13;;;31.20;35.50;;;;;;5023874;28;20521;-68
2023/07/19 11:31:33;;;;;;;7.87;2.47;;;31.60;35.70;;;;;;5022763;28;20481;-68
2023/07/19 11:34:07;;;;;;;7.07;2.83;;;32.20;34.30;;;;;;5024829;28;20434;-69
2023/07/19 11:36:35;;;;;;;5.10;2.50;;;32.70;34.20;;;;;;5024352;28;20452;-69
2023/07/19 11:39:03;;;;;;;7.00;2.27;;;33.60;32.70;;;;;;5023801;28;20450;-68
2023/07/19 11:41:36;;;;;;;2.97;1.90;;;33.70;30.00;;;;;;5023905;28;20479;-69
2023/07/19 11:44:07;;;;;;;2.97;2.13;;;32.80;30.90;;;;;;5024207;28;20545;-69
2023/07/19 11:46:34;;;;;;;2.80;2.07;;;32.10;33.50;;;;;;5023776;28;20427;-69
2023/07/19 11:49:03;;;;;;;4.37;2.50;;;32.60;34.30;;;;;;5023326;28;20442;-68
2023/07/19 11:51:37;;;;;;;3.37;2.47;;;33.30;32.90;;;;;;5026925;28;20526;-69
2023/07/19 11:54:04;;;;;;;5.03;2.37;;;33.40;31.80;;;;;;5024423;28;20453;-70
2023/07/19 11:56:32;;;;;;;4.60;2.20;;;33.00;30.80;;;;;;5023637;28;20453;-69
2023/07/19 11:58:57;;;;;;;5.03;2.00;;;33.00;32.50;;;;;;5025960;28;20447;-69
2023/07/19 12:01:27;;;;;;;2.97;2.00;;;33.10;32.30;;;;;;5024516;28;20466;-69
2023/07/19 12:03:59;;;;;;;4.23;2.20;;;32.70;32.50;;;;;;5023230;28;20203;-69
2023/07/19 12:06:26;;;;;;;1.93;1.73;;;32.40;33.40;;;;;;5023206;28;20462;-69
2023/07/19 12:08:56;;;;;;;3.57;2.27;;;32.50;31.70;;;;;;5021700;28;20455;-69
2023/07/19 12:11:23;;;;;;;3.00;1.90;;;32.60;31.30;;;;;;5020145;28;20482;-68
2023/07/19 12:13:50;;;;;;;2.17;1.60;;;32.40;31.20;;;;;;5023988;28;20477;-69
2023/07/19 12:16:18;;;;;;;2.70;1.73;;;32.30;30.90;;;;;;5022858;28;20450;-68
2023/07/19 12:18:49;;;;;;;2.07;1.47;;;32.80;31.90;;;;;;5022802;28;20944;-69
2023/07/19 12:21:16;;;;;;;4.33;1.87;;;33.40;29.40;;;;;;5022589;28;20550;-68
2023/07/19 12:23:43;;;;;;;2.50;1.27;;;33.90;29.10;;;;;;5024779;28;20453;-67
2023/07/19 12:26:13;;;;;;;3.37;1.50;;;34.60;27.50;;;;;;5043388;28;20461;-68
2023/07/19 12:28:41;;;;;;;2.87;1.67;;;35.10;26.40;;;;;;5044422;28;20430;-69
2023/07/19 12:31:08;;;;;;;2.43;1.50;;;35.00;26.60;;;;;;5043402;28;20478;-68
2023/07/19 12:33:35;;;;;;;2.50;1.53;;;34.60;26.90;;;;;;5043426;28;20495;-69
2023/07/19 12:36:04;;;;;;;2.30;1.80;;;34.20;28.00;;;;;;5041578;28;20453;-68
2023/07/19 12:38:31;;;;;;;2.80;1.90;;;34.80;28.20;;;;;;5021959;28;20461;-69
2023/07/19 12:40:58;;;;;;;5.40;2.00;;;35.20;27.20;;;;;;5023469;28;20467;-69
2023/07/19 12:43:24;;;;;;;4.20;2.20;;;35.10;26.20;;;;;;5024308;28;20483;-69
2023/07/19 12:45:51;;;;;;;2.70;1.80;;;34.60;27.20;;;;;;5022782;28;20454;-69
2023/07/19 12:48:19;;;;;;;3.87;2.27;;;34.10;29.10;;;;;;5023444;28;20450;-68
2023/07/19 12:50:47;;;;;;;2.30;1.77;;;34.70;29.20;;;;;;5023982;28;20462;-69
2023/07/19 12:53:18;;;;;;;3.27;2.20;;;35.20;27.10;;;;;;5023734;28;20451;-69
2023/07/19 12:55:46;;;;;;;3.50;2.00;;;34.70;26.80;;;;;;5024415;28;20475;-68
2023/07/19 12:58:12;;;;;;;6.23;2.00;;;34.00;28.00;;;;;;5024794;28;20539;-69
2023/07/19 13:00:42;;;;;;;5.23;2.17;;;34.20;29.80;;;;;;5023768;28;20991;-69